createdAt,value
2022-11-27T00:00:40.827Z,68.8571
2022-11-27T00:01:40.857Z,68.5
2022-11-27T00:02:41.162Z,68.2857
2022-11-27T00:03:41.090Z,68.1429
2022-11-27T00:04:40.970Z,68.0714
2022-11-27T00:05:40.998Z,67.9286
2022-11-27T00:06:41.011Z,67.7143
2022-11-27T00:07:41.146Z,67.6429
2022-11-27T00:08:41.083Z,67.8571
2022-11-27T00:09:41.390Z,67.7857
2022-11-27T00:10:41.142Z,67.8571
2022-11-27T00:11:41.172Z,67.8571
2022-11-27T00:12:41.230Z,67.8571
2022-11-27T00:13:41.245Z,67.7857
2022-11-27T00:14:41.270Z,67.7143
2022-11-27T00:15:41.361Z,67.5
2022-11-27T00:16:41.340Z,67.4286
2022-11-27T00:17:41.376Z,67.4286
2022-11-27T00:18:41.405Z,67.4286
2022-11-27T00:19:41.706Z,67.2857
2022-11-27T00:20:41.464Z,67.2143
2022-11-27T00:21:41.492Z,67.4286
2022-11-27T00:22:41.521Z,67.6429
2022-11-27T00:23:41.548Z,67.7857
2022-11-27T00:24:41.798Z,68
2022-11-27T00:25:41.614Z,68.2143
2022-11-27T00:26:41.644Z,68.2143
2022-11-27T00:27:41.674Z,68.1429
2022-11-27T00:28:41.698Z,67.9286
2022-11-27T00:29:41.734Z,67.8571
2022-11-27T00:30:41.762Z,67.8571
2022-11-27T00:31:41.881Z,68
2022-11-27T00:32:41.828Z,68.1429
2022-11-27T00:33:41.858Z,68.2857
2022-11-27T00:34:42.192Z,68.2857
2022-11-27T00:35:41.915Z,68.3571
2022-11-27T00:36:46.664Z,68.4286
2022-11-27T00:37:41.974Z,68.5
2022-11-27T00:38:42.012Z,68.5714
2022-11-27T00:39:42.031Z,68.7857
2022-11-27T00:40:42.058Z,68.6429
2022-11-27T00:41:42.099Z,68.4286
2022-11-27T00:42:42.134Z,68.3571
2022-11-27T00:43:44.010Z,68.3571
2022-11-27T00:44:42.399Z,68.3571
2022-11-27T00:45:42.248Z,68.2143
2022-11-27T00:46:42.325Z,68.2857
2022-11-27T00:47:42.307Z,68.3571
2022-11-27T00:48:42.342Z,68.2857
2022-11-27T00:49:42.361Z,68.3571
2022-11-27T00:50:42.402Z,68.3571
2022-11-27T00:51:42.423Z,68.4286
2022-11-27T00:52:42.455Z,68.4286
2022-11-27T00:53:42.490Z,68.5
2022-11-27T00:54:42.664Z,68.5714
2022-11-27T00:55:42.563Z,68.7143
2022-11-27T00:56:42.593Z,68.7857
2022-11-27T00:57:42.618Z,68.7143
2022-11-27T00:58:42.659Z,68.6429
2022-11-27T00:59:42.688Z,68.6429
2022-11-27T01:00:42.724Z,68.7857
2022-11-27T01:01:42.792Z,68.8571
2022-11-27T01:02:42.845Z,68.8571
2022-11-27T01:03:42.819Z,69
2022-11-27T01:04:42.899Z,69.0714
2022-11-27T01:05:42.894Z,69.1429
2022-11-27T01:06:42.926Z,69.0714
2022-11-27T01:07:43.079Z,69.2143
2022-11-27T01:08:42.985Z,69.2857
2022-11-27T01:09:43.026Z,69.4286
2022-11-27T01:10:43.059Z,69.4286
2022-11-27T01:11:43.096Z,69.7143
2022-11-27T01:12:43.125Z,70
2022-11-27T01:13:43.154Z,70.1429
2022-11-27T01:14:43.184Z,70.2143
2022-11-27T01:15:43.256Z,70.2857
2022-11-27T01:16:43.599Z,70.3571
2022-11-27T01:17:43.283Z,70.3571
2022-11-27T01:18:43.322Z,70.3571
2022-11-27T01:19:43.342Z,70.2857
2022-11-27T01:20:43.369Z,70.2857
2022-11-27T01:21:43.403Z,70.1429
2022-11-27T01:22:43.432Z,70.0714
2022-11-27T01:23:43.466Z,70
2022-11-27T01:24:43.496Z,70
2022-11-27T01:25:43.526Z,70
2022-11-27T01:26:43.575Z,70
2022-11-27T01:27:43.599Z,69.9286
2022-11-27T01:28:43.639Z,69.7857
2022-11-27T01:29:43.668Z,69.6429
2022-11-27T01:30:43.701Z,69.5
2022-11-27T01:31:43.811Z,69.5
2022-11-27T01:32:43.760Z,69.5
2022-11-27T01:33:43.793Z,69.5714
2022-11-27T01:34:43.832Z,69.6429
2022-11-27T01:35:43.857Z,69.7143
2022-11-27T01:36:43.897Z,69.7857
2022-11-27T01:37:43.918Z,69.8571
2022-11-27T01:38:43.954Z,69.9286
2022-11-27T01:39:43.993Z,69.9286
2022-11-27T01:40:44.018Z,69.9286
2022-11-27T01:41:44.053Z,69.9286
2022-11-27T01:42:44.095Z,69.8571
2022-11-27T01:43:44.128Z,69.7857
2022-11-27T01:44:44.159Z,69.6429
2022-11-27T01:45:44.209Z,69.5714
2022-11-27T01:46:44.313Z,69.5714
2022-11-27T01:47:44.246Z,69.5714
2022-11-27T01:48:44.288Z,69.5
2022-11-27T01:49:44.312Z,69.4286
2022-11-27T01:50:44.342Z,69.1429
2022-11-27T01:51:44.387Z,68.8571
2022-11-27T01:52:44.411Z,68.6429
2022-11-27T01:53:44.445Z,68.5
2022-11-27T01:54:44.471Z,68.3571
2022-11-27T01:55:44.529Z,68.3571
2022-11-27T01:56:44.542Z,68.3571
2022-11-27T01:57:44.582Z,68.1429
2022-11-27T01:58:44.615Z,68.2857
2022-11-27T01:59:44.653Z,68.4286
2022-11-27T02:00:44.692Z,68.4286
2022-11-27T02:01:44.766Z,68.3571
2022-11-27T02:02:44.854Z,68.3571
2022-11-27T02:03:44.754Z,68.3571
2022-11-27T02:04:44.784Z,68.4286
2022-11-27T02:05:44.815Z,68.2857
2022-11-27T02:06:44.847Z,68.1429
2022-11-27T02:07:44.913Z,68.0714
2022-11-27T02:08:44.910Z,68
2022-11-27T02:09:44.935Z,67.8571
2022-11-27T02:10:44.961Z,67.8571
2022-11-27T02:11:44.990Z,67.9286
2022-11-27T02:12:45.032Z,67.8571
2022-11-27T02:13:45.066Z,67.9286
2022-11-27T02:14:45.092Z,68.1429
2022-11-27T02:15:45.169Z,68.2143
2022-11-27T02:16:45.279Z,68.2857
2022-11-27T02:17:45.177Z,68.1429
2022-11-27T02:18:45.212Z,68.0714
2022-11-27T02:19:45.241Z,68
2022-11-27T02:20:45.271Z,68
2022-11-27T02:21:45.306Z,68.0714
2022-11-27T02:22:45.385Z,68
2022-11-27T02:23:45.365Z,67.9286
2022-11-27T02:24:45.395Z,67.8571
2022-11-27T02:25:45.429Z,67.7857
2022-11-27T02:26:45.454Z,67.7143
2022-11-27T02:27:45.480Z,67.7857
2022-11-27T02:28:45.521Z,67.7143
2022-11-27T02:29:45.560Z,67.3571
2022-11-27T02:30:45.701Z,66.9286
2022-11-27T02:31:45.733Z,66.6429
2022-11-27T02:32:45.652Z,66.5
2022-11-27T02:33:45.691Z,66.5
2022-11-27T02:34:45.731Z,66.6429
2022-11-27T02:35:45.761Z,66.7857
2022-11-27T02:36:45.801Z,66.7857
2022-11-27T02:37:45.826Z,66.6429
2022-11-27T02:38:45.858Z,66.7143
2022-11-27T02:39:45.891Z,66.8571
2022-11-27T02:40:45.929Z,66.9286
2022-11-27T02:41:45.960Z,67
2022-11-27T02:42:45.991Z,67
2022-11-27T02:43:46.023Z,67
2022-11-27T02:44:46.063Z,66.9286
2022-11-27T02:45:46.093Z,66.8571
2022-11-27T02:46:46.164Z,66.9286
2022-11-27T02:47:46.163Z,67
2022-11-27T02:48:46.200Z,66.8571
2022-11-27T02:49:46.233Z,66.7857
2022-11-27T02:50:46.271Z,66.7857
2022-11-27T02:51:46.304Z,66.7143
2022-11-27T02:52:46.347Z,66.7857
2022-11-27T02:53:46.385Z,66.8571
2022-11-27T02:54:46.416Z,66.9286
2022-11-27T02:55:46.446Z,67
2022-11-27T02:56:46.473Z,67.0714
2022-11-27T02:57:46.525Z,67.1429
2022-11-27T02:58:46.565Z,67.1429
2022-11-27T02:59:46.592Z,67.1429
2022-11-27T03:00:46.643Z,67.2143
2022-11-27T03:01:46.776Z,67.1429
2022-11-27T03:02:46.831Z,67.1429
2022-11-27T03:03:46.727Z,67.1429
2022-11-27T03:04:46.763Z,67.2143
2022-11-27T03:05:46.798Z,67.3571
2022-11-27T03:06:46.832Z,67.4286
2022-11-27T03:07:46.935Z,67.5
2022-11-27T03:08:46.899Z,67.5
2022-11-27T03:09:46.930Z,67.6429
2022-11-27T03:10:46.955Z,67.7857
2022-11-27T03:11:46.998Z,67.8571
2022-11-27T03:12:47.031Z,67.9286
2022-11-27T03:13:47.054Z,67.9286
2022-11-27T03:14:47.091Z,68
2022-11-27T03:15:47.153Z,68.0714
2022-11-27T03:16:47.151Z,68.2143
2022-11-27T03:17:47.182Z,68.2143
2022-11-27T03:18:47.227Z,68.2143
2022-11-27T03:19:47.257Z,68.3571
2022-11-27T03:20:47.285Z,68.4286
2022-11-27T03:21:47.316Z,68.5714
2022-11-27T03:22:47.345Z,68.6429
2022-11-27T03:23:47.379Z,68.6429
2022-11-27T03:24:47.407Z,68.7143
2022-11-27T03:25:47.436Z,68.7143
2022-11-27T03:26:47.463Z,68.8571
2022-11-27T03:27:47.492Z,68.9286
2022-11-27T03:28:47.521Z,68.9286
2022-11-27T03:29:47.559Z,69.0714
2022-11-27T03:30:47.598Z,69.1429
2022-11-27T03:31:47.728Z,69.2143
2022-11-27T03:32:47.657Z,69.2143
2022-11-27T03:33:47.692Z,69.2857
2022-11-27T03:34:47.715Z,69.5
2022-11-27T03:35:47.755Z,69.6429
2022-11-27T03:36:47.783Z,69.7857
2022-11-27T03:37:47.828Z,69.7857
2022-11-27T03:38:47.848Z,69.7143
2022-11-27T03:39:47.874Z,69.7857
2022-11-27T03:40:47.895Z,69.9286
2022-11-27T03:41:47.924Z,70.2143
2022-11-27T03:42:47.959Z,70.4286
2022-11-27T03:43:47.990Z,70.5
2022-11-27T03:44:48.009Z,70.4286
2022-11-27T03:45:48.053Z,70.2857
2022-11-27T03:46:48.173Z,70.2143
2022-11-27T03:47:48.162Z,70.1429
2022-11-27T03:48:48.163Z,70.0714
2022-11-27T03:49:48.195Z,70
2022-11-27T03:50:48.218Z,70
2022-11-27T03:51:48.258Z,70
2022-11-27T03:52:48.292Z,69.9286
2022-11-27T03:53:48.327Z,69.9286
2022-11-27T03:54:48.353Z,69.8571
2022-11-27T03:55:48.391Z,69.8571
2022-11-27T03:56:48.473Z,69.7857
2022-11-27T03:57:48.453Z,69.7143
2022-11-27T03:58:48.498Z,69.7143
2022-11-27T03:59:48.517Z,69.7857
2022-11-27T04:00:48.555Z,69.8571
2022-11-27T04:01:48.695Z,69.8571
2022-11-27T04:02:48.618Z,69.8571
2022-11-27T04:03:48.682Z,69.9286
2022-11-27T04:04:48.677Z,69.9286
2022-11-27T04:05:48.720Z,69.9286
2022-11-27T04:06:48.747Z,69.9286
2022-11-27T04:07:48.914Z,69.9286
2022-11-27T04:08:48.815Z,69.9286
2022-11-27T04:09:48.835Z,69.8571
2022-11-27T04:10:48.860Z,69.8571
2022-11-27T04:11:48.896Z,69.7143
2022-11-27T04:12:48.932Z,69.5714
2022-11-27T04:13:48.960Z,69.5
2022-11-27T04:14:48.999Z,69.4286
2022-11-27T04:15:49.068Z,69.2857
2022-11-27T04:16:49.060Z,69.1429
2022-11-27T04:17:49.085Z,69.1429
2022-11-27T04:18:49.121Z,69
2022-11-27T04:19:49.152Z,69
2022-11-27T04:20:49.185Z,68.9286
2022-11-27T04:21:49.204Z,68.7857
2022-11-27T04:22:49.236Z,68.7857
2022-11-27T04:23:49.274Z,68.8571
2022-11-27T04:24:49.314Z,68.7143
2022-11-27T04:25:49.342Z,68.7143
2022-11-27T04:26:49.375Z,68.5714
2022-11-27T04:27:49.402Z,68.6429
2022-11-27T04:28:49.432Z,68.6429
2022-11-27T04:29:49.473Z,68.5714
2022-11-27T04:30:49.492Z,68.3571
2022-11-27T04:31:49.563Z,68.2857
2022-11-27T04:32:49.561Z,68.2857
2022-11-27T04:33:49.582Z,68.3571
2022-11-27T04:34:49.611Z,68.5
2022-11-27T04:35:49.643Z,68.2857
2022-11-27T04:36:49.680Z,68.1429
2022-11-27T04:37:49.710Z,68
2022-11-27T04:38:49.745Z,68.0714
2022-11-27T04:39:49.778Z,67.9286
2022-11-27T04:40:49.807Z,68.0714
2022-11-27T04:41:49.836Z,68.5
2022-11-27T04:42:49.867Z,68.4286
2022-11-27T04:43:49.887Z,68.2143
2022-11-27T04:44:49.920Z,68.2857
2022-11-27T04:45:49.956Z,68.1429
2022-11-27T04:46:50.124Z,68.1429
2022-11-27T04:47:50.027Z,68.2857
2022-11-27T04:48:50.071Z,68.3571
2022-11-27T04:49:50.103Z,68.3571
2022-11-27T04:50:50.132Z,68.3571
2022-11-27T04:51:50.179Z,68.3571
2022-11-27T04:52:50.226Z,68.2143
2022-11-27T04:53:53.256Z,68.1429
2022-11-27T04:54:52.300Z,68.1429
2022-11-27T04:55:50.299Z,68
2022-11-27T04:56:50.345Z,67.7857
2022-11-27T04:57:50.358Z,67.9286
2022-11-27T04:58:50.379Z,68.0714
2022-11-27T04:59:50.407Z,68.0714
2022-11-27T05:00:50.482Z,68
2022-11-27T05:01:50.549Z,67.9286
2022-11-27T05:02:50.590Z,68
2022-11-27T05:03:50.540Z,68.0714
2022-11-27T05:04:50.573Z,68
2022-11-27T05:05:50.595Z,68.0714
2022-11-27T05:06:50.627Z,68
2022-11-27T05:07:50.750Z,68.0714
2022-11-27T05:08:50.696Z,68.2143
2022-11-27T05:09:50.735Z,68.3571
2022-11-27T05:10:50.771Z,68.2143
2022-11-27T05:11:50.809Z,68.4286
2022-11-27T05:12:50.843Z,68.4286
2022-11-27T05:13:50.868Z,68.2857
2022-11-27T05:14:50.900Z,68.1429
2022-11-27T05:15:50.967Z,68.0714
2022-11-27T05:16:50.985Z,68
2022-11-27T05:17:51.013Z,68
2022-11-27T05:18:51.037Z,68
2022-11-27T05:19:51.070Z,68.1429
2022-11-27T05:20:51.103Z,68.1429
2022-11-27T05:21:51.135Z,68.1429
2022-11-27T05:22:51.175Z,68.2143
2022-11-27T05:23:51.207Z,68
2022-11-27T05:24:51.233Z,67.9286
2022-11-27T05:25:51.266Z,67.7857
2022-11-27T05:26:51.298Z,67.7143
2022-11-27T05:27:51.323Z,67.5714
2022-11-27T05:28:51.352Z,67.4286
2022-11-27T05:29:51.388Z,67.2857
2022-11-27T05:30:51.418Z,67.0714
2022-11-27T05:31:51.503Z,67.2857
2022-11-27T05:32:51.479Z,67.2857
2022-11-27T05:33:51.510Z,67.2857
2022-11-27T05:34:51.542Z,67.3571
2022-11-27T05:35:51.572Z,67.2143
2022-11-27T05:36:51.595Z,67.2143
2022-11-27T05:37:51.625Z,67.2857
2022-11-27T05:38:51.662Z,67.2857
2022-11-27T05:39:51.683Z,67.4286
2022-11-27T05:40:51.718Z,67.5714
2022-11-27T05:41:51.757Z,67.6429
2022-11-27T05:42:51.780Z,67.7143
2022-11-27T05:43:51.830Z,67.5714
2022-11-27T05:44:56.732Z,67.3571
2022-11-27T05:45:51.884Z,67.2857
2022-11-27T05:46:52.067Z,67.2143
2022-11-27T05:47:51.955Z,67.0714
2022-11-27T05:48:51.987Z,66.9286
2022-11-27T05:49:52.040Z,66.8571
2022-11-27T05:50:52.050Z,66.7143
2022-11-27T05:51:52.135Z,66.7143
2022-11-27T05:52:52.127Z,66.7857
2022-11-27T05:53:52.141Z,66.8571
2022-11-27T05:54:52.192Z,66.9286
2022-11-27T05:55:52.197Z,67.0714
2022-11-27T05:56:52.232Z,67.1429
2022-11-27T05:57:52.258Z,67.2143
2022-11-27T05:58:52.300Z,67.3571
2022-11-27T05:59:52.325Z,67.4286
2022-11-27T06:00:52.366Z,67.3571
2022-11-27T06:01:52.440Z,67.2857
2022-11-27T06:02:52.575Z,67.2857
2022-11-27T06:03:52.545Z,67.4286
2022-11-27T06:04:52.477Z,67.2143
2022-11-27T06:05:52.507Z,67
2022-11-27T06:06:52.534Z,67.1429
2022-11-27T06:07:52.640Z,67.3571
2022-11-27T06:08:52.594Z,67.3571
2022-11-27T06:09:52.627Z,67.2143
2022-11-27T06:10:52.675Z,67.2143
2022-11-27T06:11:52.712Z,67.0714
2022-11-27T06:12:52.743Z,67.2143
2022-11-27T06:13:52.777Z,67.3571
2022-11-27T06:14:52.812Z,67.6429
2022-11-27T06:15:52.839Z,67.7143
2022-11-27T06:16:52.891Z,68
2022-11-27T06:17:52.902Z,68.0714
2022-11-27T06:18:52.934Z,68.1429
2022-11-27T06:19:52.968Z,68.1429
2022-11-27T06:20:53.241Z,68.2143
2022-11-27T06:21:53.051Z,68.3571
2022-11-27T06:22:53.095Z,68.6429
2022-11-27T06:23:53.131Z,68.7857
2022-11-27T06:24:53.156Z,68.8571
2022-11-27T06:25:53.189Z,69.0714
2022-11-27T06:26:53.223Z,69.0714
2022-11-27T06:27:53.262Z,69.0714
2022-11-27T06:28:53.291Z,69
2022-11-27T06:29:53.329Z,69.0714
2022-11-27T06:30:53.391Z,68.9286
2022-11-27T06:31:53.525Z,68.8571
2022-11-27T06:32:53.425Z,69.0714
2022-11-27T06:33:53.455Z,69.2857
2022-11-27T06:34:53.483Z,69.2143
2022-11-27T06:35:53.520Z,69.1429
2022-11-27T06:36:53.556Z,69.2143
2022-11-27T06:37:53.590Z,69.2143
2022-11-27T06:38:53.627Z,69.1429
2022-11-27T06:39:53.651Z,69.2143
2022-11-27T06:40:53.685Z,69.2143
2022-11-27T06:41:53.700Z,69.3571
2022-11-27T06:42:53.735Z,69.5
2022-11-27T06:43:53.775Z,69.6429
2022-11-27T06:44:53.798Z,69.7857
2022-11-27T06:45:53.863Z,69.9286
2022-11-27T06:46:53.873Z,70.0714
2022-11-27T06:47:53.897Z,70.2143
2022-11-27T06:48:53.934Z,70.3571
2022-11-27T06:49:53.965Z,70.5
2022-11-27T06:50:53.994Z,70.7143
2022-11-27T06:51:54.034Z,70.8571
2022-11-27T06:52:54.057Z,70.9286
2022-11-27T06:53:54.088Z,71.0714
2022-11-27T06:54:54.126Z,71.1429
2022-11-27T06:55:54.165Z,71.2857
2022-11-27T06:56:54.191Z,71.3571
2022-11-27T06:57:54.222Z,71.4286
2022-11-27T06:58:54.262Z,71.5
2022-11-27T06:59:54.284Z,71.5714
2022-11-27T07:00:54.351Z,71.7143
2022-11-27T07:01:54.415Z,71.7857
2022-11-27T07:02:54.376Z,71.8571
2022-11-27T07:03:54.403Z,71.9286
2022-11-27T07:04:54.434Z,72
2022-11-27T07:05:54.471Z,72.0714
2022-11-27T07:06:54.493Z,72.2143
2022-11-27T07:07:54.605Z,72.2857
2022-11-27T07:08:54.555Z,72.4286
2022-11-27T07:09:54.607Z,72.5714
2022-11-27T07:10:54.616Z,72.6429
2022-11-27T07:11:54.649Z,72.7143
2022-11-27T07:12:54.684Z,72.7857
2022-11-27T07:13:54.711Z,72.8571
2022-11-27T07:14:54.740Z,72.9286
2022-11-27T07:15:54.964Z,73
2022-11-27T07:16:54.921Z,73
2022-11-27T07:17:54.830Z,73.0714
2022-11-27T07:18:54.863Z,73.2143
2022-11-27T07:19:54.901Z,73.3571
2022-11-27T07:20:56.635Z,73.5
2022-11-27T07:21:54.960Z,73.6429
2022-11-27T07:22:55.013Z,73.7143
2022-11-27T07:23:55.028Z,73.7143
2022-11-27T07:24:55.061Z,73.7857
2022-11-27T07:25:55.082Z,73.8571
2022-11-27T07:26:55.107Z,73.7857
2022-11-27T07:27:55.150Z,73.7857
2022-11-27T07:28:55.175Z,73.7143
2022-11-27T07:29:55.217Z,73.6429
2022-11-27T07:30:55.246Z,73.5714
2022-11-27T07:31:55.338Z,73.5
2022-11-27T07:32:55.304Z,73.4286
2022-11-27T07:33:55.333Z,73.4286
2022-11-27T07:34:55.374Z,73.4286
2022-11-27T07:35:55.407Z,73.3571
2022-11-27T07:36:55.499Z,73.3571
2022-11-27T07:37:55.456Z,73.4286
2022-11-27T07:38:55.491Z,73.4286
2022-11-27T07:40:02.307Z,73.5
2022-11-27T07:40:55.545Z,73.5
2022-11-27T07:41:59.856Z,73.5714
2022-11-27T07:42:55.591Z,73.5714
2022-11-27T07:43:55.625Z,73.6429
2022-11-27T07:44:55.652Z,73.7143
2022-11-27T07:45:55.748Z,73.6429
2022-11-27T07:46:55.701Z,73.6429
2022-11-27T07:47:55.744Z,73.6429
2022-11-27T07:48:55.783Z,73.6429
2022-11-27T07:49:55.804Z,73.5714
2022-11-27T07:50:55.830Z,73.5
2022-11-27T07:51:55.863Z,73.5
2022-11-27T07:52:55.904Z,73.4286
2022-11-27T07:53:55.932Z,73.5
2022-11-27T07:54:55.970Z,73.4286
2022-11-27T07:55:56.001Z,73.2857
2022-11-27T07:56:56.037Z,73.2143
2022-11-27T07:57:56.060Z,73.0714
2022-11-27T07:58:56.090Z,73
2022-11-27T07:59:56.125Z,72.8571
2022-11-27T08:00:56.205Z,72.7857
2022-11-27T08:01:56.193Z,72.7143
2022-11-27T08:02:56.235Z,72.6429
2022-11-27T08:03:56.265Z,72.6429
2022-11-27T08:04:56.347Z,72.6429
2022-11-27T08:05:56.321Z,72.5714
2022-11-27T08:06:56.360Z,72.5
2022-11-27T08:07:56.463Z,72.5
2022-11-27T08:08:56.421Z,72.4286
2022-11-27T08:09:56.447Z,72.3571
2022-11-27T08:10:56.477Z,72.3571
2022-11-27T08:11:56.517Z,72.3571
2022-11-27T08:12:56.536Z,72.3571
2022-11-27T08:13:56.585Z,72.4286
2022-11-27T08:14:56.614Z,72.5
2022-11-27T08:15:56.709Z,72.5714
2022-11-27T08:16:56.748Z,72.7143
2022-11-27T08:17:56.704Z,72.7143
2022-11-27T08:18:56.734Z,72.8571
2022-11-27T08:19:56.764Z,72.8571
2022-11-27T08:20:56.800Z,72.9286
2022-11-27T08:21:56.925Z,72.9286
2022-11-27T08:23:02.346Z,72.9286
2022-11-27T08:23:56.890Z,73
2022-11-27T08:24:56.929Z,73.0714
2022-11-27T08:25:56.961Z,73.1429
2022-11-27T08:26:57.071Z,73.2143
2022-11-27T08:27:57.017Z,73.3571
2022-11-27T08:28:57.047Z,73.3571
2022-11-27T08:29:57.082Z,73.3571
2022-11-27T08:30:57.110Z,73.3571
2022-11-27T08:31:57.217Z,73.3571
2022-11-27T08:32:57.170Z,73.2857
2022-11-27T08:33:57.202Z,73.1429
2022-11-27T08:34:57.241Z,73.0714
2022-11-27T08:35:57.273Z,72.9286
2022-11-27T08:36:57.309Z,72.7143
2022-11-27T08:37:57.345Z,72.6429
2022-11-27T08:38:57.379Z,72.5714
2022-11-27T08:39:57.408Z,72.5714
2022-11-27T08:40:57.429Z,72.5714
2022-11-27T08:41:57.476Z,72.4286
2022-11-27T08:42:57.487Z,72.2857
2022-11-27T08:43:57.521Z,72.2143
2022-11-27T08:44:57.548Z,72.2143
2022-11-27T08:45:57.672Z,72.0714
2022-11-27T08:46:57.620Z,71.9286
2022-11-27T08:47:57.659Z,71.8571
2022-11-27T08:48:57.663Z,71.7857
2022-11-27T08:49:57.696Z,71.5
2022-11-27T08:50:57.734Z,71.3571
2022-11-27T08:51:57.762Z,71.2857
2022-11-27T08:52:57.787Z,71.2143
2022-11-27T08:53:57.814Z,71.0714
2022-11-27T08:54:58.189Z,71
2022-11-27T08:55:57.870Z,71
2022-11-27T08:56:57.906Z,71.0714
2022-11-27T08:57:57.933Z,71.1429
2022-11-27T08:58:57.970Z,70.9286
2022-11-27T08:59:57.997Z,70.8571
2022-11-27T09:00:58.069Z,70.7143
2022-11-27T09:01:58.057Z,70.6429
2022-11-27T09:02:58.096Z,70.5714
2022-11-27T09:03:58.152Z,70.5714
2022-11-27T09:04:58.159Z,70.6429
2022-11-27T09:05:58.193Z,70.7143
2022-11-27T09:06:58.863Z,70.7143
2022-11-27T09:07:58.339Z,70.7143
2022-11-27T09:08:58.276Z,70.7143
2022-11-27T09:09:58.295Z,70.7857
2022-11-27T09:10:58.328Z,70.9286
2022-11-27T09:11:58.353Z,71.0714
2022-11-27T09:12:58.390Z,71.2143
2022-11-27T09:13:58.417Z,71.2857
2022-11-27T09:14:58.452Z,71.2143
2022-11-27T09:15:58.477Z,71.2143
2022-11-27T09:16:58.577Z,71.2143
2022-11-27T09:17:58.542Z,71.0714
2022-11-27T09:18:58.589Z,71.0714
2022-11-27T09:19:58.605Z,71.2143
2022-11-27T09:20:58.630Z,71.1429
2022-11-27T09:21:58.662Z,71.2143
2022-11-27T09:22:58.685Z,71.4286
2022-11-27T09:23:58.725Z,71.2857
2022-11-27T09:24:58.745Z,71.2857
2022-11-27T09:25:58.769Z,71.2143
2022-11-27T09:26:58.796Z,71
2022-11-27T09:27:58.832Z,70.9286
2022-11-27T09:28:58.866Z,70.9286
2022-11-27T09:29:58.914Z,71.0714
2022-11-27T09:30:58.928Z,71
2022-11-27T09:31:59.066Z,71
2022-11-27T09:32:58.995Z,71
2022-11-27T09:33:59.029Z,71.0714
2022-11-27T09:34:59.088Z,71.2143
2022-11-27T09:35:59.112Z,71.2857
2022-11-27T09:36:59.128Z,71.1429
2022-11-27T09:37:59.163Z,71.2143
2022-11-27T09:38:59.190Z,71.2143
2022-11-27T09:39:59.220Z,71.1429
2022-11-27T09:41:02.824Z,71.2143
2022-11-27T09:41:59.273Z,71.2143
2022-11-27T09:42:59.303Z,71.2143
2022-11-27T09:43:59.354Z,71.2143
2022-11-27T09:44:59.370Z,71.1429
2022-11-27T09:45:59.630Z,71.1429
2022-11-27T09:46:59.449Z,71.2143
2022-11-27T09:47:59.480Z,71.1429
2022-11-27T09:48:59.499Z,71.1429
2022-11-27T09:49:59.535Z,71.2143
2022-11-27T09:50:59.586Z,71.0714
2022-11-27T09:51:59.608Z,70.9286
2022-11-27T09:52:59.623Z,70.7143
2022-11-27T09:53:59.663Z,70.6429
2022-11-27T09:54:59.692Z,70.5
2022-11-27T09:55:59.748Z,70.3571
2022-11-27T09:56:59.745Z,70.2143
2022-11-27T09:57:59.770Z,70.0714
2022-11-27T09:58:59.804Z,70
2022-11-27T09:59:59.831Z,70
2022-11-27T10:00:59.865Z,70.0714
2022-11-27T10:02:00.072Z,70.0714
2022-11-27T10:03:00.141Z,70.1429
2022-11-27T10:03:59.970Z,70.2143
2022-11-27T10:05:13.351Z,70.1429
2022-11-27T10:06:00.032Z,70.2143
2022-11-27T10:07:00.068Z,70.2143
2022-11-27T10:08:06.033Z,70.0714
2022-11-27T10:09:00.134Z,70
2022-11-27T10:10:00.188Z,70
2022-11-27T10:11:00.203Z,69.8571
2022-11-27T10:12:00.231Z,70
2022-11-27T10:13:00.250Z,70.1429
2022-11-27T10:14:00.282Z,70.4286
2022-11-27T10:15:00.314Z,70.7143
2022-11-27T10:16:00.349Z,70.5
2022-11-27T10:17:00.431Z,70.5714
2022-11-27T10:18:00.422Z,70.3571
2022-11-27T10:19:00.447Z,70.5
2022-11-27T10:20:00.472Z,70.2143
2022-11-27T10:21:00.511Z,70.0714
2022-11-27T10:22:00.541Z,70.0714
2022-11-27T10:23:00.581Z,70.1429
2022-11-27T10:24:00.606Z,70.2143
2022-11-27T10:25:00.660Z,70.4286
2022-11-27T10:26:00.675Z,70.5714
2022-11-27T10:27:00.697Z,70.7857
2022-11-27T10:28:00.740Z,70.7143
2022-11-27T10:29:00.776Z,70.5
2022-11-27T10:30:00.797Z,70.3571
2022-11-27T10:31:00.835Z,70.5
2022-11-27T10:32:00.984Z,70.4286
2022-11-27T10:33:00.902Z,70.3571
2022-11-27T10:34:00.922Z,70.2857
2022-11-27T10:35:00.969Z,70.2143
2022-11-27T10:36:00.989Z,70.3571
2022-11-27T10:37:01.048Z,70.2857
2022-11-27T10:38:06.316Z,70.2857
2022-11-27T10:39:01.107Z,70.1429
2022-11-27T10:40:01.117Z,70.3571
2022-11-27T10:41:01.148Z,70.4286
2022-11-27T10:42:01.193Z,70.3571
2022-11-27T10:43:01.212Z,70.1429
2022-11-27T10:44:01.928Z,70.2143
2022-11-27T10:45:01.286Z,70.1429
2022-11-27T10:46:01.378Z,70
2022-11-27T10:47:01.344Z,69.5714
2022-11-27T10:48:01.381Z,69.4286
2022-11-27T10:49:01.408Z,69.7143
2022-11-27T10:50:01.471Z,69.7143
2022-11-27T10:51:01.479Z,69.5714
2022-11-27T10:52:01.504Z,69.0714
2022-11-27T10:53:01.550Z,68.8571
2022-11-27T10:54:01.600Z,68.7143
2022-11-27T10:55:01.599Z,68.5714
2022-11-27T10:56:01.664Z,68.5714
2022-11-27T10:57:01.670Z,68.7857
2022-11-27T10:58:01.699Z,69.0714
2022-11-27T10:59:01.740Z,68.7857
2022-11-27T11:00:01.763Z,68.7857
2022-11-27T11:01:01.928Z,68.9286
2022-11-27T11:02:01.948Z,68.9286
2022-11-27T11:03:01.849Z,69
2022-11-27T11:04:10.165Z,68.7143
2022-11-27T11:05:30.799Z,68.9286
2022-11-27T11:06:19.867Z,68.9286
2022-11-27T11:07:01.976Z,68.8571
2022-11-27T11:08:02.009Z,68.7857
2022-11-27T11:09:02.070Z,68.6429
2022-11-27T11:10:02.105Z,68.6429
2022-11-27T11:11:02.128Z,68.7143
2022-11-27T11:12:02.145Z,68.9286
2022-11-27T11:13:02.184Z,68.7143
2022-11-27T11:14:02.218Z,68.4286
2022-11-27T11:15:06.147Z,68.5714
2022-11-27T11:16:06.237Z,68.7143
2022-11-27T11:16:56.696Z,68.4286
2022-11-27T11:17:40.631Z,68.3571
2022-11-27T11:18:40.661Z,68.0714
2022-11-27T11:19:46.685Z,67.9286
2022-11-27T11:20:46.716Z,68
2022-11-27T11:21:46.750Z,67.8571
2022-11-27T11:22:46.773Z,67.3571
2022-11-27T11:23:46.813Z,67.3571
2022-11-27T11:24:46.852Z,67.2857
2022-11-27T11:25:46.879Z,67.0714
2022-11-27T11:26:46.951Z,66.3571
2022-11-27T11:27:46.941Z,66.0714
2022-11-27T11:28:46.965Z,65.7857
2022-11-27T11:29:47.005Z,65.9286
2022-11-27T11:30:47.031Z,66.0714
2022-11-27T11:31:47.124Z,65.8571
2022-11-27T11:32:47.123Z,66.0714
2022-11-27T11:33:47.121Z,66.2857
2022-11-27T11:34:47.149Z,66.2143
2022-11-27T11:35:47.184Z,65.9286
2022-11-27T11:36:47.221Z,65.8571
2022-11-27T11:37:47.275Z,66.0714
2022-11-27T11:38:47.288Z,65.9286
2022-11-27T11:39:47.310Z,65.9286
2022-11-27T11:40:47.338Z,65.6429
2022-11-27T11:41:47.363Z,65.1429
2022-11-27T11:42:47.387Z,64.8571
2022-11-27T11:43:47.427Z,65.1429
2022-11-27T11:44:47.453Z,65
2022-11-27T11:45:47.510Z,65.2857
2022-11-27T11:46:47.516Z,65.3571
2022-11-27T11:47:47.551Z,65.0714
2022-11-27T11:48:47.589Z,65.0714
2022-11-27T11:49:47.614Z,65.4286
2022-11-27T11:50:47.645Z,65.2857
2022-11-27T11:51:47.674Z,65.2857
2022-11-27T11:52:47.702Z,65.2143
2022-11-27T11:53:47.738Z,65.7143
2022-11-27T11:54:47.768Z,65.7857
2022-11-27T11:55:47.787Z,65.4286
2022-11-27T11:56:47.821Z,65.0714
2022-11-27T11:57:47.854Z,65
2022-11-27T11:58:47.888Z,65.1429
2022-11-27T11:59:47.914Z,65.3571
2022-11-27T12:01:11.802Z,64.9286
2022-11-27T12:01:48.005Z,65
2022-11-27T12:02:48.022Z,65.2857
2022-11-27T12:03:48.045Z,65.5
2022-11-27T12:04:48.102Z,65.1429
2022-11-27T12:05:48.082Z,65.3571
2022-11-27T12:06:48.112Z,65.5
2022-11-27T12:07:52.174Z,65.2857
2022-11-27T12:08:48.171Z,65.5
2022-11-27T12:09:48.207Z,65.3571
2022-11-27T12:10:48.230Z,65.3571
2022-11-27T12:11:48.262Z,65.6429
2022-11-27T12:12:48.289Z,65.7143
2022-11-27T12:13:48.341Z,65.6429
2022-11-27T12:14:48.358Z,65.7857
2022-11-27T12:15:48.391Z,66
2022-11-27T12:16:48.558Z,65.5714
2022-11-27T12:17:48.483Z,65.6429
2022-11-27T12:18:48.482Z,65.5714